sensor_id;sensor_type;location;lat;lon;timestamp;P1;durP1;ratioP1;P2;durP2;ratioP2
74612;SDS011;63119;51.788;8.824;2023-04-15T00:00:23;8.10;;;5.22;;
74612;SDS011;63119;51.788;8.824;2023-04-15T00:02:49;7.13;;;4.85;;
74612;SDS011;63119;51.788;8.824;2023-04-15T00:05:15;8.33;;;4.53;;
74612;SDS011;63119;51.788;8.824;2023-04-15T00:07:40;10.47;;;5.47;;
74612;SDS011;63119;51.788;8.824;2023-04-15T00:10:06;8.93;;;5.17;;
74612;SDS011;63119;51.788;8.824;2023-04-15T00:12:31;10.15;;;5.15;;
74612;SDS011;63119;51.788;8.824;2023-04-15T00:14:57;10.87;;;5.93;;
74612;SDS011;63119;51.788;8.824;2023-04-15T00:17:22;10.10;;;5.72;;
74612;SDS011;63119;51.788;8.824;2023-04-15T00:19:48;9.50;;;6.10;;
74612;SDS011;63119;51.788;8.824;2023-04-15T00:22:13;10.32;;;5.63;;
74612;SDS011;63119;51.788;8.824;2023-04-15T00:24:38;9.83;;;5.80;;
74612;SDS011;63119;51.788;8.824;2023-04-15T00:27:04;11.13;;;6.77;;
74612;SDS011;63119;51.788;8.824;2023-04-15T00:29:29;7.63;;;5.07;;
74612;SDS011;63119;51.788;8.824;2023-04-15T00:31:55;7.72;;;4.80;;
74612;SDS011;63119;51.788;8.824;2023-04-15T00:34:21;9.40;;;5.18;;
74612;SDS011;63119;51.788;8.824;2023-04-15T00:36:46;8.98;;;5.53;;
74612;SDS011;63119;51.788;8.824;2023-04-15T00:39:11;8.87;;;5.17;;
74612;SDS011;63119;51.788;8.824;2023-04-15T00:41:37;8.23;;;5.03;;
74612;SDS011;63119;51.788;8.824;2023-04-15T00:44:04;8.07;;;5.13;;
74612;SDS011;63119;51.788;8.824;2023-04-15T00:46:30;9.20;;;6.00;;
74612;SDS011;63119;51.788;8.824;2023-04-15T00:48:59;6.80;;;4.22;;
74612;SDS011;63119;51.788;8.824;2023-04-15T00:51:24;6.68;;;4.63;;
74612;SDS011;63119;51.788;8.824;2023-04-15T00:53:50;8.77;;;4.23;;
74612;SDS011;63119;51.788;8.824;2023-04-15T00:56:15;6.20;;;3.78;;
74612;SDS011;63119;51.788;8.824;2023-04-15T00:58:41;8.00;;;4.75;;
74612;SDS011;63119;51.788;8.824;2023-04-15T01:01:06;6.93;;;4.37;;
74612;SDS011;63119;51.788;8.824;2023-04-15T01:03:31;8.00;;;4.60;;
74612;SDS011;63119;51.788;8.824;2023-04-15T01:05:57;6.87;;;4.60;;
74612;SDS011;63119;51.788;8.824;2023-04-15T01:08:25;6.18;;;3.83;;
74612;SDS011;63119;51.788;8.824;2023-04-15T01:10:55;7.60;;;4.32;;
74612;SDS011;63119;51.788;8.824;2023-04-15T01:13:22;5.65;;;4.05;;
74612;SDS011;63119;51.788;8.824;2023-04-15T01:15:48;7.95;;;4.38;;
74612;SDS011;63119;51.788;8.824;2023-04-15T01:18:15;8.65;;;4.55;;
74612;SDS011;63119;51.788;8.824;2023-04-15T01:20:41;10.45;;;4.30;;
74612;SDS011;63119;51.788;8.824;2023-04-15T01:23:07;8.20;;;4.43;;
74612;SDS011;63119;51.788;8.824;2023-04-15T01:25:33;8.10;;;4.72;;
74612;SDS011;63119;51.788;8.824;2023-04-15T01:27:59;6.30;;;4.18;;
74612;SDS011;63119;51.788;8.824;2023-04-15T01:30:24;8.40;;;4.75;;
74612;SDS011;63119;51.788;8.824;2023-04-15T01:32:51;7.50;;;4.60;;
74612;SDS011;63119;51.788;8.824;2023-04-15T01:35:16;6.93;;;4.85;;
74612;SDS011;63119;51.788;8.824;2023-04-15T01:37:42;8.50;;;4.47;;
74612;SDS011;63119;51.788;8.824;2023-04-15T01:40:07;7.50;;;4.80;;
74612;SDS011;63119;51.788;8.824;2023-04-15T01:42:34;7.68;;;4.75;;
74612;SDS011;63119;51.788;8.824;2023-04-15T01:45:00;8.25;;;4.70;;
74612;SDS011;63119;51.788;8.824;2023-04-15T01:47:25;8.25;;;4.57;;
74612;SDS011;63119;51.788;8.824;2023-04-15T01:49:51;8.38;;;4.72;;
74612;SDS011;63119;51.788;8.824;2023-04-15T01:52:17;7.03;;;5.07;;
74612;SDS011;63119;51.788;8.824;2023-04-15T01:54:42;7.78;;;4.63;;
74612;SDS011;63119;51.788;8.824;2023-04-15T01:57:07;7.10;;;4.37;;
74612;SDS011;63119;51.788;8.824;2023-04-15T01:59:33;8.20;;;4.97;;
74612;SDS011;63119;51.788;8.824;2023-04-15T02:01:58;9.30;;;4.83;;
74612;SDS011;63119;51.788;8.824;2023-04-15T02:04:24;8.65;;;4.50;;
74612;SDS011;63119;51.788;8.824;2023-04-15T02:06:49;8.63;;;4.57;;
74612;SDS011;63119;51.788;8.824;2023-04-15T02:09:14;8.10;;;4.43;;
74612;SDS011;63119;51.788;8.824;2023-04-15T02:11:40;7.87;;;4.53;;
74612;SDS011;63119;51.788;8.824;2023-04-15T02:14:05;7.13;;;4.27;;
74612;SDS011;63119;51.788;8.824;2023-04-15T02:16:31;6.63;;;4.00;;
74612;SDS011;63119;51.788;8.824;2023-04-15T02:18:56;6.80;;;3.75;;
74612;SDS011;63119;51.788;8.824;2023-04-15T02:21:22;10.03;;;4.20;;
74612;SDS011;63119;51.788;8.824;2023-04-15T02:23:47;7.23;;;4.63;;
74612;SDS011;63119;51.788;8.824;2023-04-15T02:26:13;7.53;;;3.97;;
74612;SDS011;63119;51.788;8.824;2023-04-15T02:28:38;9.60;;;4.43;;
74612;SDS011;63119;51.788;8.824;2023-04-15T02:31:04;6.85;;;4.15;;
74612;SDS011;63119;51.788;8.824;2023-04-15T02:33:30;9.23;;;4.47;;
74612;SDS011;63119;51.788;8.824;2023-04-15T02:35:56;8.32;;;3.92;;
74612;SDS011;63119;51.788;8.824;2023-04-15T02:38:21;7.50;;;4.50;;
74612;SDS011;63119;51.788;8.824;2023-04-15T02:40:46;6.70;;;3.80;;
74612;SDS011;63119;51.788;8.824;2023-04-15T02:43:13;9.50;;;4.90;;
74612;SDS011;63119;51.788;8.824;2023-04-15T02:45:38;6.50;;;3.97;;
74612;SDS011;63119;51.788;8.824;2023-04-15T02:48:04;6.10;;;3.65;;
74612;SDS011;63119;51.788;8.824;2023-04-15T02:50:30;6.93;;;4.10;;
74612;SDS011;63119;51.788;8.824;2023-04-15T02:52:55;6.03;;;3.80;;
74612;SDS011;63119;51.788;8.824;2023-04-15T02:55:20;7.13;;;4.47;;
74612;SDS011;63119;51.788;8.824;2023-04-15T02:57:46;7.10;;;4.50;;
74612;SDS011;63119;51.788;8.824;2023-04-15T03:00:11;11.20;;;4.73;;
74612;SDS011;63119;51.788;8.824;2023-04-15T03:02:38;9.60;;;5.15;;
74612;SDS011;63119;51.788;8.824;2023-04-15T03:05:04;9.40;;;4.82;;
74612;SDS011;63119;51.788;8.824;2023-04-15T03:07:30;7.85;;;4.80;;
74612;SDS011;63119;51.788;8.824;2023-04-15T03:09:55;8.85;;;5.03;;
74612;SDS011;63119;51.788;8.824;2023-04-15T03:12:21;8.67;;;5.03;;
74612;SDS011;63119;51.788;8.824;2023-04-15T03:14:46;8.50;;;4.40;;
74612;SDS011;63119;51.788;8.824;2023-04-15T03:17:11;7.45;;;4.63;;
74612;SDS011;63119;51.788;8.824;2023-04-15T03:19:37;8.83;;;4.73;;
74612;SDS011;63119;51.788;8.824;2023-04-15T03:22:02;7.23;;;4.20;;
74612;SDS011;63119;51.788;8.824;2023-04-15T03:24:27;7.63;;;4.60;;
74612;SDS011;63119;51.788;8.824;2023-04-15T03:26:54;7.38;;;4.95;;
74612;SDS011;63119;51.788;8.824;2023-04-15T03:29:20;9.63;;;4.50;;
74612;SDS011;63119;51.788;8.824;2023-04-15T03:31:45;8.90;;;4.67;;
74612;SDS011;63119;51.788;8.824;2023-04-15T03:34:10;7.47;;;5.28;;
74612;SDS011;63119;51.788;8.824;2023-04-15T03:36:36;6.70;;;4.27;;
74612;SDS011;63119;51.788;8.824;2023-04-15T03:39:01;7.07;;;4.47;;
74612;SDS011;63119;51.788;8.824;2023-04-15T03:41:27;8.02;;;5.07;;
74612;SDS011;63119;51.788;8.824;2023-04-15T03:43:52;7.60;;;4.65;;
74612;SDS011;63119;51.788;8.824;2023-04-15T03:46:18;6.60;;;4.77;;
74612;SDS011;63119;51.788;8.824;2023-04-15T03:48:43;8.50;;;4.90;;
74612;SDS011;63119;51.788;8.824;2023-04-15T03:51:08;7.50;;;4.68;;
74612;SDS011;63119;51.788;8.824;2023-04-15T03:53:34;6.87;;;4.73;;
74612;SDS011;63119;51.788;8.824;2023-04-15T03:55:59;8.70;;;4.70;;
74612;SDS011;63119;51.788;8.824;2023-04-15T03:58:24;6.30;;;4.50;;
74612;SDS011;63119;51.788;8.824;2023-04-15T04:00:50;8.00;;;4.37;;
74612;SDS011;63119;51.788;8.824;2023-04-15T04:03:15;6.53;;;4.20;;
74612;SDS011;63119;51.788;8.824;2023-04-15T04:05:41;9.75;;;4.38;;
74612;SDS011;63119;51.788;8.824;2023-04-15T04:08:08;7.97;;;4.65;;
74612;SDS011;63119;51.788;8.824;2023-04-15T04:10:33;8.43;;;4.97;;
74612;SDS011;63119;51.788;8.824;2023-04-15T04:12:58;7.70;;;4.65;;
74612;SDS011;63119;51.788;8.824;2023-04-15T04:15:23;9.27;;;4.47;;
74612;SDS011;63119;51.788;8.824;2023-04-15T04:17:49;7.88;;;4.57;;
74612;SDS011;63119;51.788;8.824;2023-04-15T04:20:14;7.40;;;4.20;;
74612;SDS011;63119;51.788;8.824;2023-04-15T04:22:40;6.73;;;4.50;;
74612;SDS011;63119;51.788;8.824;2023-04-15T04:25:06;7.90;;;4.50;;
74612;SDS011;63119;51.788;8.824;2023-04-15T04:27:32;9.98;;;5.00;;
74612;SDS011;63119;51.788;8.824;2023-04-15T04:29:58;7.82;;;5.07;;
74612;SDS011;63119;51.788;8.824;2023-04-15T04:32:23;10.13;;;5.10;;
74612;SDS011;63119;51.788;8.824;2023-04-15T04:34:48;11.37;;;5.20;;
74612;SDS011;63119;51.788;8.824;2023-04-15T04:37:13;8.27;;;5.17;;
74612;SDS011;63119;51.788;8.824;2023-04-15T04:39:39;9.33;;;4.90;;
74612;SDS011;63119;51.788;8.824;2023-04-15T04:42:04;10.43;;;5.77;;
74612;SDS011;63119;51.788;8.824;2023-04-15T04:44:29;12.37;;;6.00;;
74612;SDS011;63119;51.788;8.824;2023-04-15T04:46:55;10.83;;;5.90;;
74612;SDS011;63119;51.788;8.824;2023-04-15T04:49:20;11.60;;;6.50;;
74612;SDS011;63119;51.788;8.824;2023-04-15T04:51:45;10.53;;;5.37;;
74612;SDS011;63119;51.788;8.824;2023-04-15T04:54:12;12.48;;;5.68;;
74612;SDS011;63119;51.788;8.824;2023-04-15T04:56:37;7.70;;;5.10;;
74612;SDS011;63119;51.788;8.824;2023-04-15T04:59:03;9.43;;;5.38;;
74612;SDS011;63119;51.788;8.824;2023-04-15T05:01:29;9.45;;;5.75;;
74612;SDS011;63119;51.788;8.824;2023-04-15T05:03:54;11.67;;;5.93;;
74612;SDS011;63119;51.788;8.824;2023-04-15T05:06:20;9.27;;;5.63;;
74612;SDS011;63119;51.788;8.824;2023-04-15T05:08:45;9.60;;;5.57;;
74612;SDS011;63119;51.788;8.824;2023-04-15T05:11:11;9.88;;;5.57;;
74612;SDS011;63119;51.788;8.824;2023-04-15T05:13:36;10.05;;;5.85;;
74612;SDS011;63119;51.788;8.824;2023-04-15T05:16:03;8.88;;;5.85;;
74612;SDS011;63119;51.788;8.824;2023-04-15T05:18:29;9.80;;;5.47;;
74612;SDS011;63119;51.788;8.824;2023-04-15T05:20:55;11.45;;;5.40;;
74612;SDS011;63119;51.788;8.824;2023-04-15T05:23:20;9.68;;;5.45;;
74612;SDS011;63119;51.788;8.824;2023-04-15T05:25:45;9.77;;;5.77;;
74612;SDS011;63119;51.788;8.824;2023-04-15T05:28:10;11.30;;;5.57;;
74612;SDS011;63119;51.788;8.824;2023-04-15T05:30:36;10.93;;;5.93;;
74612;SDS011;63119;51.788;8.824;2023-04-15T05:33:01;10.10;;;5.95;;
74612;SDS011;63119;51.788;8.824;2023-04-15T05:35:27;10.75;;;6.18;;
74612;SDS011;63119;51.788;8.824;2023-04-15T05:37:53;10.30;;;6.43;;
74612;SDS011;63119;51.788;8.824;2023-04-15T05:40:18;11.03;;;6.37;;
74612;SDS011;63119;51.788;8.824;2023-04-15T05:42:44;9.77;;;5.60;;
74612;SDS011;63119;51.788;8.824;2023-04-15T05:45:09;9.35;;;5.90;;
74612;SDS011;63119;51.788;8.824;2023-04-15T05:47:35;9.63;;;5.78;;
74612;SDS011;63119;51.788;8.824;2023-04-15T05:50:01;10.55;;;6.68;;
74612;SDS011;63119;51.788;8.824;2023-04-15T05:52:27;14.13;;;7.43;;
74612;SDS011;63119;51.788;8.824;2023-04-15T05:54:52;13.50;;;7.63;;
74612;SDS011;63119;51.788;8.824;2023-04-15T05:57:17;15.50;;;7.67;;
74612;SDS011;63119;51.788;8.824;2023-04-15T05:59:42;13.20;;;8.03;;
74612;SDS011;63119;51.788;8.824;2023-04-15T06:02:08;15.80;;;8.07;;
74612;SDS011;63119;51.788;8.824;2023-04-15T06:04:34;14.48;;;7.65;;
74612;SDS011;63119;51.788;8.824;2023-04-15T06:06:59;15.53;;;7.47;;
74612;SDS011;63119;51.788;8.824;2023-04-15T06:09:25;16.17;;;7.18;;
74612;SDS011;63119;51.788;8.824;2023-04-15T06:11:50;14.35;;;8.05;;
74612;SDS011;63119;51.788;8.824;2023-04-15T06:14:16;15.20;;;8.35;;
74612;SDS011;63119;51.788;8.824;2023-04-15T06:16:41;13.60;;;7.47;;
74612;SDS011;63119;51.788;8.824;2023-04-15T06:19:06;14.63;;;7.40;;
74612;SDS011;63119;51.788;8.824;2023-04-15T06:21:31;15.87;;;7.43;;
74612;SDS011;63119;51.788;8.824;2023-04-15T06:23:58;13.32;;;8.02;;
74612;SDS011;63119;51.788;8.824;2023-04-15T06:26:25;15.70;;;7.30;;
74612;SDS011;63119;51.788;8.824;2023-04-15T06:28:51;14.43;;;7.70;;
74612;SDS011;63119;51.788;8.824;2023-04-15T06:31:16;17.17;;;7.73;;
74612;SDS011;63119;51.788;8.824;2023-04-15T06:33:41;12.77;;;7.47;;
74612;SDS011;63119;51.788;8.824;2023-04-15T06:36:06;14.97;;;7.77;;
74612;SDS011;63119;51.788;8.824;2023-04-15T06:38:32;11.97;;;7.20;;
74612;SDS011;63119;51.788;8.824;2023-04-15T06:40:57;17.47;;;8.60;;
74612;SDS011;63119;51.788;8.824;2023-04-15T06:43:22;14.60;;;7.90;;
74612;SDS011;63119;51.788;8.824;2023-04-15T06:45:48;17.15;;;8.18;;
74612;SDS011;63119;51.788;8.824;2023-04-15T06:48:13;17.40;;;8.27;;
74612;SDS011;63119;51.788;8.824;2023-04-15T06:50:38;14.70;;;7.63;;
74612;SDS011;63119;51.788;8.824;2023-04-15T06:53:04;12.93;;;7.93;;
74612;SDS011;63119;51.788;8.824;2023-04-15T06:55:29;15.27;;;8.18;;
74612;SDS011;63119;51.788;8.824;2023-04-15T06:57:55;16.77;;;8.43;;
74612;SDS011;63119;51.788;8.824;2023-04-15T07:00:20;15.40;;;7.95;;
74612;SDS011;63119;51.788;8.824;2023-04-15T07:02:46;15.70;;;8.17;;
74612;SDS011;63119;51.788;8.824;2023-04-15T07:05:11;16.20;;;8.80;;
74612;SDS011;63119;51.788;8.824;2023-04-15T07:07:36;18.67;;;8.87;;
74612;SDS011;63119;51.788;8.824;2023-04-15T07:10:02;17.67;;;8.87;;
74612;SDS011;63119;51.788;8.824;2023-04-15T07:12:27;17.92;;;8.48;;
74612;SDS011;63119;51.788;8.824;2023-04-15T07:14:53;13.32;;;7.38;;
74612;SDS011;63119;51.788;8.824;2023-04-15T07:17:18;15.93;;;8.97;;
74612;SDS011;63119;51.788;8.824;2023-04-15T07:19:43;16.97;;;8.67;;
74612;SDS011;63119;51.788;8.824;2023-04-15T07:22:09;17.07;;;8.93;;
74612;SDS011;63119;51.788;8.824;2023-04-15T07:24:34;15.63;;;8.50;;
74612;SDS011;63119;51.788;8.824;2023-04-15T07:26:59;17.00;;;8.15;;
74612;SDS011;63119;51.788;8.824;2023-04-15T07:29:26;17.83;;;8.65;;
74612;SDS011;63119;51.788;8.824;2023-04-15T07:31:51;12.90;;;8.10;;
74612;SDS011;63119;51.788;8.824;2023-04-15T07:34:17;17.50;;;8.67;;
74612;SDS011;63119;51.788;8.824;2023-04-15T07:36:43;17.63;;;9.32;;
74612;SDS011;63119;51.788;8.824;2023-04-15T07:39:09;15.63;;;7.85;;
74612;SDS011;63119;51.788;8.824;2023-04-15T07:41:35;14.33;;;8.30;;
74612;SDS011;63119;51.788;8.824;2023-04-15T07:44:00;16.00;;;8.48;;
74612;SDS011;63119;51.788;8.824;2023-04-15T07:46:26;16.15;;;8.70;;
74612;SDS011;63119;51.788;8.824;2023-04-15T07:48:52;17.90;;;8.77;;
74612;SDS011;63119;51.788;8.824;2023-04-15T07:51:18;14.38;;;8.05;;
74612;SDS011;63119;51.788;8.824;2023-04-15T07:53:45;16.17;;;8.48;;
74612;SDS011;63119;51.788;8.824;2023-04-15T07:56:11;14.90;;;8.40;;
74612;SDS011;63119;51.788;8.824;2023-04-15T07:58:36;17.25;;;8.35;;
74612;SDS011;63119;51.788;8.824;2023-04-15T08:01:03;17.43;;;8.73;;
74612;SDS011;63119;51.788;8.824;2023-04-15T08:03:28;16.75;;;8.35;;
74612;SDS011;63119;51.788;8.824;2023-04-15T08:05:54;16.10;;;8.03;;
74612;SDS011;63119;51.788;8.824;2023-04-15T08:08:19;15.43;;;8.10;;
74612;SDS011;63119;51.788;8.824;2023-04-15T08:10:44;18.60;;;8.90;;
74612;SDS011;63119;51.788;8.824;2023-04-15T08:13:09;15.77;;;8.17;;
74612;SDS011;63119;51.788;8.824;2023-04-15T08:15:35;15.93;;;7.78;;
74612;SDS011;63119;51.788;8.824;2023-04-15T08:18:01;16.50;;;7.95;;
74612;SDS011;63119;51.788;8.824;2023-04-15T08:20:26;13.97;;;8.17;;
74612;SDS011;63119;51.788;8.824;2023-04-15T08:22:51;14.95;;;8.38;;
74612;SDS011;63119;51.788;8.824;2023-04-15T08:25:17;16.65;;;9.30;;
74612;SDS011;63119;51.788;8.824;2023-04-15T08:27:44;19.17;;;9.63;;
74612;SDS011;63119;51.788;8.824;2023-04-15T08:30:10;15.90;;;8.15;;
74612;SDS011;63119;51.788;8.824;2023-04-15T08:32:36;15.55;;;8.30;;
74612;SDS011;63119;51.788;8.824;2023-04-15T08:35:01;14.63;;;8.02;;
74612;SDS011;63119;51.788;8.824;2023-04-15T08:37:27;18.63;;;8.07;;
74612;SDS011;63119;51.788;8.824;2023-04-15T08:39:52;15.90;;;8.17;;
74612;SDS011;63119;51.788;8.824;2023-04-15T08:42:18;12.47;;;6.60;;
74612;SDS011;63119;51.788;8.824;2023-04-15T08:44:55;10.77;;;5.80;;
74612;SDS011;63119;51.788;8.824;2023-04-15T08:47:23;10.93;;;6.28;;
74612;SDS011;63119;51.788;8.824;2023-04-15T08:49:53;12.63;;;5.45;;
74612;SDS011;63119;51.788;8.824;2023-04-15T08:52:22;11.65;;;5.85;;
74612;SDS011;63119;51.788;8.824;2023-04-15T08:54:50;9.68;;;4.43;;
74612;SDS011;63119;51.788;8.824;2023-04-15T08:57:20;10.57;;;5.07;;
74612;SDS011;63119;51.788;8.824;2023-04-15T08:59:50;11.75;;;5.15;;
74612;SDS011;63119;51.788;8.824;2023-04-15T09:02:16;9.82;;;5.40;;
74612;SDS011;63119;51.788;8.824;2023-04-15T09:04:42;9.30;;;4.57;;
74612;SDS011;63119;51.788;8.824;2023-04-15T09:07:07;10.07;;;5.20;;
74612;SDS011;63119;51.788;8.824;2023-04-15T09:09:32;10.60;;;4.97;;
74612;SDS011;63119;51.788;8.824;2023-04-15T09:11:59;11.07;;;5.20;;
74612;SDS011;63119;51.788;8.824;2023-04-15T09:14:26;8.40;;;5.13;;
74612;SDS011;63119;51.788;8.824;2023-04-15T09:19:25;11.57;;;5.18;;
74612;SDS011;63119;51.788;8.824;2023-04-15T09:21:55;9.93;;;5.13;;
74612;SDS011;63119;51.788;8.824;2023-04-15T09:24:22;12.45;;;5.68;;
74612;SDS011;63119;51.788;8.824;2023-04-15T09:26:50;9.07;;;4.70;;
74612;SDS011;63119;51.788;8.824;2023-04-15T09:29:18;18.77;;;6.45;;
74612;SDS011;63119;51.788;8.824;2023-04-15T09:31:44;11.10;;;5.55;;
74612;SDS011;63119;51.788;8.824;2023-04-15T09:34:09;13.40;;;6.37;;
74612;SDS011;63119;51.788;8.824;2023-04-15T09:39:13;8.68;;;4.38;;
74612;SDS011;63119;51.788;8.824;2023-04-15T09:41:39;11.60;;;4.83;;
74612;SDS011;63119;51.788;8.824;2023-04-15T09:44:04;13.65;;;4.93;;
74612;SDS011;63119;51.788;8.824;2023-04-15T09:46:43;8.43;;;4.47;;
74612;SDS011;63119;51.788;8.824;2023-04-15T09:49:09;10.40;;;4.38;;
74612;SDS011;63119;51.788;8.824;2023-04-15T09:51:35;7.57;;;4.50;;
74612;SDS011;63119;51.788;8.824;2023-04-15T09:54:01;9.95;;;4.78;;
74612;SDS011;63119;51.788;8.824;2023-04-15T09:56:33;7.95;;;4.65;;
74612;SDS011;63119;51.788;8.824;2023-04-15T09:59:05;7.75;;;4.13;;
74612;SDS011;63119;51.788;8.824;2023-04-15T10:01:30;9.00;;;3.72;;
74612;SDS011;63119;51.788;8.824;2023-04-15T10:03:56;7.80;;;4.05;;
74612;SDS011;63119;51.788;8.824;2023-04-15T10:06:22;9.40;;;4.47;;
74612;SDS011;63119;51.788;8.824;2023-04-15T10:08:50;7.35;;;4.10;;
74612;SDS011;63119;51.788;8.824;2023-04-15T10:11:17;8.73;;;4.50;;
74612;SDS011;63119;51.788;8.824;2023-04-15T10:13:43;7.70;;;4.18;;
74612;SDS011;63119;51.788;8.824;2023-04-15T10:16:11;8.35;;;4.75;;
74612;SDS011;63119;51.788;8.824;2023-04-15T10:18:43;8.32;;;4.35;;
74612;SDS011;63119;51.788;8.824;2023-04-15T10:21:11;8.02;;;4.28;;
74612;SDS011;63119;51.788;8.824;2023-04-15T10:23:38;9.45;;;4.47;;
74612;SDS011;63119;51.788;8.824;2023-04-15T10:26:03;10.00;;;4.40;;
74612;SDS011;63119;51.788;8.824;2023-04-15T10:28:30;12.05;;;4.50;;
74612;SDS011;63119;51.788;8.824;2023-04-15T10:30:55;8.25;;;4.07;;
74612;SDS011;63119;51.788;8.824;2023-04-15T10:33:22;8.27;;;4.82;;
74612;SDS011;63119;51.788;8.824;2023-04-15T10:35:49;7.18;;;3.83;;
74612;SDS011;63119;51.788;8.824;2023-04-15T10:41:13;7.88;;;4.15;;
74612;SDS011;63119;51.788;8.824;2023-04-15T10:43:47;8.60;;;4.65;;
74612;SDS011;63119;51.788;8.824;2023-04-15T10:46:33;7.50;;;3.90;;
74612;SDS011;63119;51.788;8.824;2023-04-15T10:49:16;7.40;;;4.25;;
74612;SDS011;63119;51.788;8.824;2023-04-15T10:51:52;8.15;;;4.57;;
74612;SDS011;63119;51.788;8.824;2023-04-15T10:56:50;7.33;;;4.20;;
74612;SDS011;63119;51.788;8.824;2023-04-15T10:59:16;6.30;;;3.72;;
74612;SDS011;63119;51.788;8.824;2023-04-15T11:12:42;6.78;;;3.60;;
74612;SDS011;63119;51.788;8.824;2023-04-15T11:17:57;8.60;;;4.10;;
74612;SDS011;63119;51.788;8.824;2023-04-15T11:20:24;9.32;;;4.80;;
74612;SDS011;63119;51.788;8.824;2023-04-15T11:22:50;8.27;;;3.95;;
74612;SDS011;63119;51.788;8.824;2023-04-15T11:25:30;6.18;;;3.85;;
74612;SDS011;63119;51.788;8.824;2023-04-15T11:27:57;6.40;;;3.70;;
74612;SDS011;63119;51.788;8.824;2023-04-15T11:30:25;7.68;;;3.67;;
74612;SDS011;63119;51.788;8.824;2023-04-15T11:32:53;7.35;;;3.75;;
74612;SDS011;63119;51.788;8.824;2023-04-15T11:35:26;6.68;;;3.70;;
74612;SDS011;63119;51.788;8.824;2023-04-15T11:37:52;7.00;;;3.78;;
74612;SDS011;63119;51.788;8.824;2023-04-15T11:40:22;6.72;;;3.90;;
74612;SDS011;63119;51.788;8.824;2023-04-15T11:45:33;5.93;;;3.22;;
74612;SDS011;63119;51.788;8.824;2023-04-15T11:48:05;6.95;;;4.05;;
74612;SDS011;63119;51.788;8.824;2023-04-15T11:50:34;7.13;;;3.53;;
74612;SDS011;63119;51.788;8.824;2023-04-15T11:53:02;6.80;;;3.40;;
74612;SDS011;63119;51.788;8.824;2023-04-15T11:55:28;5.70;;;3.28;;
74612;SDS011;63119;51.788;8.824;2023-04-15T11:58:13;6.38;;;3.42;;
74612;SDS011;63119;51.788;8.824;2023-04-15T12:00:56;9.80;;;4.95;;
74612;SDS011;63119;51.788;8.824;2023-04-15T12:03:28;8.18;;;3.88;;
74612;SDS011;63119;51.788;8.824;2023-04-15T12:08:49;5.78;;;3.22;;
74612;SDS011;63119;51.788;8.824;2023-04-15T12:14:05;7.30;;;4.20;;
74612;SDS011;63119;51.788;8.824;2023-04-15T12:16:36;5.90;;;3.72;;
74612;SDS011;63119;51.788;8.824;2023-04-15T12:19:05;6.20;;;3.33;;
74612;SDS011;63119;51.788;8.824;2023-04-15T12:21:33;7.13;;;3.95;;
74612;SDS011;63119;51.788;8.824;2023-04-15T12:24:02;11.30;;;6.70;;
74612;SDS011;63119;51.788;8.824;2023-04-15T12:26:30;9.15;;;5.25;;
74612;SDS011;63119;51.788;8.824;2023-04-15T12:29:03;9.90;;;7.65;;
74612;SDS011;63119;51.788;8.824;2023-04-15T12:31:30;8.88;;;5.28;;
74612;SDS011;63119;51.788;8.824;2023-04-15T12:33:56;8.85;;;6.10;;
74612;SDS011;63119;51.788;8.824;2023-04-15T12:36:22;7.60;;;5.93;;
74612;SDS011;63119;51.788;8.824;2023-04-15T12:38:48;7.97;;;5.15;;
74612;SDS011;63119;51.788;8.824;2023-04-15T12:41:14;6.57;;;4.60;;
74612;SDS011;63119;51.788;8.824;2023-04-15T12:43:39;8.60;;;4.57;;
74612;SDS011;63119;51.788;8.824;2023-04-15T12:46:04;8.00;;;4.67;;
74612;SDS011;63119;51.788;8.824;2023-04-15T12:48:32;6.72;;;3.95;;
74612;SDS011;63119;51.788;8.824;2023-04-15T12:50:57;7.13;;;4.83;;
74612;SDS011;63119;51.788;8.824;2023-04-15T12:53:22;5.33;;;4.27;;
74612;SDS011;63119;51.788;8.824;2023-04-15T12:55:48;6.50;;;4.67;;
74612;SDS011;63119;51.788;8.824;2023-04-15T12:58:13;7.70;;;5.00;;
74612;SDS011;63119;51.788;8.824;2023-04-15T13:00:38;5.77;;;3.97;;
74612;SDS011;63119;51.788;8.824;2023-04-15T13:03:03;8.10;;;5.23;;
74612;SDS011;63119;51.788;8.824;2023-04-15T13:05:29;6.30;;;4.57;;
74612;SDS011;63119;51.788;8.824;2023-04-15T13:07:54;6.70;;;3.70;;
74612;SDS011;63119;51.788;8.824;2023-04-15T13:10:19;7.03;;;4.20;;
74612;SDS011;63119;51.788;8.824;2023-04-15T13:12:47;8.50;;;4.35;;
74612;SDS011;63119;51.788;8.824;2023-04-15T13:15:14;7.15;;;4.10;;
74612;SDS011;63119;51.788;8.824;2023-04-15T13:17:43;6.47;;;4.20;;
74612;SDS011;63119;51.788;8.824;2023-04-15T13:20:08;6.60;;;4.00;;
74612;SDS011;63119;51.788;8.824;2023-04-15T13:22:34;6.22;;;3.60;;
74612;SDS011;63119;51.788;8.824;2023-04-15T13:24:59;5.87;;;3.67;;
74612;SDS011;63119;51.788;8.824;2023-04-15T13:27:25;7.80;;;3.47;;
74612;SDS011;63119;51.788;8.824;2023-04-15T13:29:50;5.87;;;4.10;;
74612;SDS011;63119;51.788;8.824;2023-04-15T13:32:15;6.17;;;3.60;;
74612;SDS011;63119;51.788;8.824;2023-04-15T13:34:40;6.83;;;4.17;;
74612;SDS011;63119;51.788;8.824;2023-04-15T13:37:06;5.33;;;3.67;;
74612;SDS011;63119;51.788;8.824;2023-04-15T13:39:32;6.80;;;4.07;;
74612;SDS011;63119;51.788;8.824;2023-04-15T13:41:58;5.90;;;3.78;;
74612;SDS011;63119;51.788;8.824;2023-04-15T13:44:23;5.85;;;3.80;;
74612;SDS011;63119;51.788;8.824;2023-04-15T13:46:48;6.10;;;3.60;;
74612;SDS011;63119;51.788;8.824;2023-04-15T13:49:13;5.73;;;4.13;;
74612;SDS011;63119;51.788;8.824;2023-04-15T13:51:39;5.68;;;3.33;;
74612;SDS011;63119;51.788;8.824;2023-04-15T13:54:04;21.02;;;11.38;;
74612;SDS011;63119;51.788;8.824;2023-04-15T13:56:30;8.68;;;5.43;;
74612;SDS011;63119;51.788;8.824;2023-04-15T13:58:55;9.17;;;6.03;;
74612;SDS011;63119;51.788;8.824;2023-04-15T14:01:22;9.05;;;6.28;;
74612;SDS011;63119;51.788;8.824;2023-04-15T14:03:48;6.68;;;4.40;;
74612;SDS011;63119;51.788;8.824;2023-04-15T14:06:13;5.93;;;4.00;;
74612;SDS011;63119;51.788;8.824;2023-04-15T14:08:39;8.32;;;4.30;;
74612;SDS011;63119;51.788;8.824;2023-04-15T14:11:05;8.38;;;5.18;;
74612;SDS011;63119;51.788;8.824;2023-04-15T14:13:30;7.95;;;4.35;;
74612;SDS011;63119;51.788;8.824;2023-04-15T14:15:56;6.60;;;4.00;;
74612;SDS011;63119;51.788;8.824;2023-04-15T14:18:21;9.13;;;4.90;;
74612;SDS011;63119;51.788;8.824;2023-04-15T14:20:46;8.70;;;4.87;;
74612;SDS011;63119;51.788;8.824;2023-04-15T14:23:11;9.73;;;4.70;;
74612;SDS011;63119;51.788;8.824;2023-04-15T14:25:37;10.43;;;4.43;;
74612;SDS011;63119;51.788;8.824;2023-04-15T14:28:03;10.85;;;5.97;;
74612;SDS011;63119;51.788;8.824;2023-04-15T14:30:28;9.67;;;6.50;;
74612;SDS011;63119;51.788;8.824;2023-04-15T14:32:53;9.53;;;5.27;;
74612;SDS011;63119;51.788;8.824;2023-04-15T14:35:19;7.57;;;5.13;;
74612;SDS011;63119;51.788;8.824;2023-04-15T14:37:44;10.60;;;5.75;;
74612;SDS011;63119;51.788;8.824;2023-04-15T14:40:10;10.73;;;5.70;;
74612;SDS011;63119;51.788;8.824;2023-04-15T14:42:35;12.60;;;6.50;;
74612;SDS011;63119;51.788;8.824;2023-04-15T14:45:00;9.27;;;5.32;;
74612;SDS011;63119;51.788;8.824;2023-04-15T14:47:26;11.87;;;6.80;;
74612;SDS011;63119;51.788;8.824;2023-04-15T14:49:51;12.63;;;6.33;;
74612;SDS011;63119;51.788;8.824;2023-04-15T14:52:16;13.53;;;6.87;;
74612;SDS011;63119;51.788;8.824;2023-04-15T14:54:41;11.03;;;6.13;;
74612;SDS011;63119;51.788;8.824;2023-04-15T14:57:07;8.57;;;5.30;;
74612;SDS011;63119;51.788;8.824;2023-04-15T14:59:33;15.18;;;6.63;;
74612;SDS011;63119;51.788;8.824;2023-04-15T15:01:58;10.87;;;5.37;;
74612;SDS011;63119;51.788;8.824;2023-04-15T15:04:23;11.40;;;6.10;;
74612;SDS011;63119;51.788;8.824;2023-04-15T15:06:48;10.17;;;6.37;;
74612;SDS011;63119;51.788;8.824;2023-04-15T15:09:14;10.00;;;6.13;;